Time;durP1;ratioP1;P1;durP2;ratioP2;P2;SDS_P1;SDS_P2;PMS_P1;PMS_P2;Temp;Humidity;BMP_temperature;BMP_pressure;BME280_temperature;BME280_humidity;BME280_pressure;Samples;Min_cycle;Max_cycle;Signal;HPM_P1;HPM_P2
2023/11/21 00:00:13;;;;;;;24.30;12.68;;;;;;;5.93;100.00;100877.72;5114863;28;20055;-49
2023/11/21 00:02:42;;;;;;;21.80;11.50;;;;;;;5.88;100.00;100875.31;5111623;28;20130;-47
2023/11/21 00:05:13;;;;;;;21.90;12.77;;;;;;;5.87;100.00;100875.38;5111982;28;20261;-46
2023/11/21 00:07:42;;;;;;;30.02;14.48;;;;;;;5.84;100.00;100873.75;5114809;27;20127;-46
2023/11/21 00:10:14;;;;;;;29.58;14.40;;;;;;;5.83;100.00;100873.84;5114730;28;20103;-47
2023/11/21 00:12:43;;;;;;;27.85;13.82;;;;;;;5.81;100.00;100879.13;5114706;28;20506;-46
2023/11/21 00:15:11;;;;;;;28.27;14.40;;;;;;;5.79;100.00;100886.16;5114660;28;20047;-47
2023/11/21 00:17:40;;;;;;;25.45;15.05;;;;;;;5.76;100.00;100887.16;5114470;28;20521;-47
2023/11/21 00:20:12;;;;;;;23.73;13.52;;;;;;;5.75;100.00;100885.47;5115562;28;20131;-56
2023/11/21 00:22:42;;;;;;;29.65;14.63;;;;;;;5.78;100.00;100886.25;5115182;28;20058;-56
2023/11/21 00:25:17;;;;;;;26.63;14.55;;;;;;;5.76;100.00;100888.91;5115407;28;20048;-56
2023/11/21 00:27:45;;;;;;;26.98;14.27;;;;;;;5.75;100.00;100890.69;5114120;28;20043;-56
2023/11/21 00:30:16;;;;;;;25.10;13.73;;;;;;;5.75;100.00;100887.22;5115677;28;20067;-57
2023/11/21 00:32:44;;;;;;;22.50;13.27;;;;;;;5.73;100.00;100889.06;5115249;28;20398;-57
2023/11/21 00:35:13;;;;;;;24.10;13.52;;;;;;;5.74;100.00;100895.97;5113856;28;20122;-54
2023/11/21 00:37:42;;;;;;;27.05;13.80;;;;;;;5.73;100.00;100892.50;5112948;28;20062;-48
2023/11/21 00:40:15;;;;;;;20.85;11.82;;;;;;;5.74;100.00;100901.22;5114632;28;20051;-56
2023/11/21 00:42:43;;;;;;;26.55;14.25;;;;;;;5.74;100.00;100898.59;5113252;28;20510;-49
2023/11/21 00:45:12;;;;;;;23.77;13.30;;;;;;;5.74;100.00;100903.81;5114129;28;20039;-50
2023/11/21 00:47:40;;;;;;;27.08;12.80;;;;;;;5.75;100.00;100902.88;5113933;28;20035;-49
2023/11/21 00:50:09;;;;;;;24.83;13.77;;;;;;;5.76;100.00;100896.75;5112605;28;20039;-48
2023/11/21 00:52:38;;;;;;;24.55;13.32;;;;;;;5.76;100.00;100904.56;5113786;28;20406;-46
2023/11/21 00:55:09;;;;;;;25.95;13.52;;;;;;;5.77;100.00;100914.09;5109345;28;20432;-48
2023/11/21 00:57:37;;;;;;;25.02;14.02;;;;;;;5.78;100.00;100909.72;5111997;28;20584;-50
2023/11/21 01:00:09;;;;;;;26.80;14.48;;;;;;;5.77;100.00;100914.09;5112772;28;20035;-49
2023/11/21 01:02:37;;;;;;;28.88;14.38;;;;;;;5.80;100.00;100913.13;5110921;28;20495;-46
2023/11/21 01:05:07;;;;;;;27.67;14.38;;;;;;;5.82;100.00;100917.38;5110184;28;20071;-45
2023/11/21 01:07:36;;;;;;;25.60;15.25;;;;;;;5.83;100.00;100923.44;5113435;28;20134;-47
2023/11/21 01:10:08;;;;;;;30.10;15.73;;;;;;;5.84;100.00;100925.97;5113494;28;20510;-48
2023/11/21 01:12:39;;;;;;;32.30;15.30;;;;;;;5.86;100.00;100928.50;5111938;28;20790;-49
2023/11/21 01:15:08;;;;;;;32.25;15.48;;;;;;;5.87;100.00;100927.59;5109763;28;20117;-44
2023/11/21 01:17:37;;;;;;;30.75;14.38;;;;;;;5.89;100.00;100933.59;5112897;28;20071;-49
2023/11/21 01:20:12;;;;;;;27.45;14.57;;;;;;;5.91;100.00;100940.44;5113275;28;20043;-47
2023/11/21 01:22:42;;;;;;;28.85;15.13;;;;;;;5.92;100.00;100949.97;5113213;28;20047;-46
2023/11/21 01:25:14;;;;;;;28.95;15.20;;;;;;;5.95;100.00;100951.59;5113300;28;20063;-47
2023/11/21 01:27:44;;;;;;;25.13;13.68;;;;;;;5.98;100.00;100959.31;5113198;28;20036;-49
2023/11/21 01:30:12;;;;;;;31.48;15.95;;;;;;;6.01;100.00;100960.94;5113031;28;20410;-47
2023/11/21 01:32:40;;;;;;;27.52;15.32;;;;;;;6.02;100.00;100963.50;5111900;28;20379;-50
2023/11/21 01:35:09;;;;;;;28.52;15.23;;;;;;;6.03;100.00;100965.19;5113092;28;20528;-47
2023/11/21 01:37:38;;;;;;;31.02;15.57;;;;;;;6.06;100.00;100970.28;5113239;28;20122;-48
2023/11/21 01:40:11;;;;;;;27.15;14.93;;;;;;;6.10;100.00;100971.00;5109400;28;20091;-46
2023/11/21 01:42:41;;;;;;;32.22;16.23;;;;;;;6.11;100.00;100958.78;5109987;28;20491;-45
2023/11/21 01:45:12;;;;;;;30.05;16.15;;;;;;;6.11;100.00;100967.47;5112716;28;20118;-46
2023/11/21 01:47:42;;;;;;;26.17;14.43;;;;;;;6.13;100.00;100965.63;5112722;28;20068;-46
2023/11/21 01:50:15;;;;;;;25.42;13.75;;;;;;;6.16;100.00;100962.03;5112818;28;20138;-45
2023/11/21 01:52:44;;;;;;;;;;;;;;;6.18;100.00;100960.22;5113299;28;20134;-46
2023/11/21 01:55:18;;;;;;;27.65;15.20;;;;;;;6.20;100.00;100959.25;5107589;28;19928;-46
2023/11/21 01:57:56;;;;;;;33.95;17.90;;;;;;;6.23;100.00;100960.84;5110264;28;20040;-49
2023/11/21 02:00:27;;;;;;;30.38;15.48;;;;;;;6.24;100.00;100963.41;5112597;28;20039;-47
2023/11/21 02:03:00;;;;;;;36.03;16.60;;;;;;;6.28;100.00;100960.66;5112126;28;20563;-47
2023/11/21 02:05:29;;;;;;;37.67;18.33;;;;;;;6.30;100.00;100953.56;5109403;28;20100;-47
2023/11/21 02:07:58;;;;;;;32.35;16.35;;;;;;;6.31;100.00;100955.28;5109552;28;20043;-46
2023/11/21 02:10:27;;;;;;;31.38;17.15;;;;;;;6.33;100.00;100959.53;5112120;28;20075;-50
2023/11/21 02:12:56;;;;;;;31.40;18.55;;;;;;;6.34;100.00;100961.22;5112412;28;20055;-48
2023/11/21 02:15:28;;;;;;;31.65;17.63;;;;;;;6.36;100.00;100964.59;5112378;28;20051;-45
2023/11/21 02:17:58;;;;;;;32.85;17.95;;;;;;;6.38;100.00;100967.13;5112441;28;20040;-50
2023/11/21 02:20:29;;;;;;;34.15;17.77;;;;;;;6.41;100.00;100967.84;5112337;28;20521;-46
2023/11/21 02:22:59;;;;;;;33.30;17.65;;;;;;;6.42;100.00;100974.78;5112565;28;20040;-46
2023/11/21 02:25:30;;;;;;;34.72;17.77;;;;;;;6.42;100.00;100973.91;5111075;28;20142;-49
2023/11/21 02:27:59;;;;;;;32.10;17.98;;;;;;;6.43;100.00;100980.84;5112105;28;20652;-49
2023/11/21 02:30:31;;;;;;;35.40;18.20;;;;;;;6.42;100.00;100973.91;5112244;28;20043;-50
2023/11/21 02:33:00;;;;;;;31.75;17.45;;;;;;;6.42;100.00;100982.63;5112203;28;20047;-50
2023/11/21 02:35:30;;;;;;;39.03;17.85;;;;;;;6.46;100.00;100985.09;5112112;28;20137;-46
2023/11/21 02:38:01;;;;;;;35.92;17.42;;;;;;;6.47;100.00;100986.78;5112121;28;20039;-46
2023/11/21 02:40:29;;;;;;;32.78;18.17;;;;;;;6.46;100.00;100974.63;5112065;28;20067;-47
2023/11/21 02:42:58;;;;;;;29.65;16.55;;;;;;;6.47;100.00;100987.63;5112539;28;20048;-57
2023/11/21 02:45:27;;;;;;;32.22;17.08;;;;;;;6.48;100.00;100981.47;5112637;28;20055;-57
2023/11/21 02:47:56;;;;;;;36.20;18.33;;;;;;;6.49;100.00;100985.81;5110635;28;20047;-48
2023/11/21 02:50:27;;;;;;;34.38;18.35;;;;;;;6.50;100.00;100982.25;5112412;28;20134;-49
2023/11/21 02:52:57;;;;;;;49.50;20.27;;;;;;;6.52;100.00;100983.03;5112227;28;20036;-47
2023/11/21 02:55:28;;;;;;;39.78;19.35;;;;;;;6.56;100.00;100989.81;5112109;28;20055;-49
2023/11/21 02:57:57;;;;;;;39.33;18.65;;;;;;;6.57;100.00;100988.91;5112222;28;20393;-49
2023/11/21 03:00:26;;;;;;;46.58;21.15;;;;;;;6.59;100.00;100987.06;5111998;28;20555;-46
2023/11/21 03:02:56;;;;;;;35.78;18.60;;;;;;;6.62;100.00;100990.47;5112078;28;20445;-46
2023/11/21 03:05:25;;;;;;;43.05;21.05;;;;;;;6.64;100.00;100983.38;5111977;28;20494;-45
2023/11/21 03:07:53;;;;;;;52.35;21.67;;;;;;;6.69;100.00;100987.47;5111966;28;20065;-47
2023/11/21 03:10:21;;;;;;;40.00;20.05;;;;;;;6.69;100.00;100982.25;5111558;28;20100;-48
2023/11/21 03:12:51;;;;;;;44.45;20.65;;;;;;;6.70;100.00;100994.41;5111493;28;20108;-50
2023/11/21 03:15:19;;;;;;;44.58;20.08;;;;;;;6.71;100.00;100990.03;5108124;28;20077;-48
2023/11/21 03:17:49;;;;;;;41.97;19.55;;;;;;;6.70;100.00;100991.78;5109800;28;20044;-49
2023/11/21 03:20:17;;;;;;;45.22;20.45;;;;;;;6.73;100.00;100996.88;5111687;28;20503;-47
2023/11/21 03:22:48;;;;;;;42.28;20.88;;;;;;;6.75;100.00;100992.44;5109658;28;20039;-45
2023/11/21 03:25:17;;;;;;;41.28;19.45;;;;;;;6.77;100.00;100989.75;5110684;28;20051;-47
2023/11/21 03:27:46;;;;;;;46.90;20.95;;;;;;;6.77;100.00;101003.66;5115214;28;20043;-46
2023/11/21 03:30:16;;;;;;;41.53;18.60;;;;;;;6.80;100.00;100997.44;5115401;28;20039;-48
2023/11/21 03:32:44;;;;;;;45.08;20.73;;;;;;;6.79;100.00;101003.59;5113224;28;20062;-48
2023/11/21 03:35:13;;;;;;;43.70;20.17;;;;;;;6.78;100.00;101009.75;5113157;28;20047;-57
2023/11/21 03:37:41;;;;;;;39.30;19.45;;;;;;;6.81;100.00;101012.19;5115487;28;20051;-57
2023/11/21 03:40:12;;;;;;;36.22;19.00;;;;;;;6.80;100.00;101020.97;5115211;28;20051;-57
2023/11/21 03:42:40;;;;;;;41.28;20.20;;;;;;;6.80;100.00;101020.13;5114533;28;20079;-57
2023/11/21 03:45:09;;;;;;;45.08;20.95;;;;;;;6.81;100.00;101021.81;5116160;28;20348;-56
2023/11/21 03:47:39;;;;;;;42.60;19.60;;;;;;;6.81;100.00;101021.81;5115929;28;20046;-56
2023/11/21 03:50:11;;;;;;;46.90;21.70;;;;;;;6.81;100.00;101020.03;5116356;28;20089;-57
2023/11/21 03:52:39;;;;;;;42.60;19.70;;;;;;;6.84;100.00;101021.66;5115705;28;20051;-57
2023/11/21 03:55:08;;;;;;;41.92;19.77;;;;;;;6.86;100.00;101019.84;5114699;28;20048;-57
2023/11/21 03:57:37;;;;;;;45.28;20.73;;;;;;;6.87;100.00;101018.91;5115473;28;20039;-57
2023/11/21 04:00:08;;;;;;;39.85;20.30;;;;;;;6.86;100.00;101020.69;5115948;28;20074;-57
2023/11/21 04:02:36;;;;;;;38.03;20.23;;;;;;;6.89;100.00;101024.94;5115836;28;20142;-57
2023/11/21 04:05:07;;;;;;;37.35;20.45;;;;;;;6.89;100.00;101025.75;5115974;28;20040;-57
2023/11/21 04:07:35;;;;;;;39.45;19.95;;;;;;;6.88;100.00;101018.81;5115947;28;20502;-56
2023/11/21 04:10:07;;;;;;;37.47;19.65;;;;;;;6.89;100.00;101017.91;5114831;28;20521;-57
2023/11/21 04:12:35;;;;;;;38.07;20.40;;;;;;;6.88;100.00;101023.22;5114862;28;20047;-57
2023/11/21 04:15:04;;;;;;;41.78;19.67;;;;;;;6.88;100.00;101028.44;5115058;28;20054;-57
2023/11/21 04:17:32;;;;;;;35.58;19.15;;;;;;;6.89;100.00;101040.63;5115147;28;20055;-57
2023/11/21 04:20:00;;;;;;;35.10;17.98;;;;;;;6.89;100.00;101041.44;5116075;28;20127;-57
2023/11/21 04:22:30;;;;;;;34.17;18.42;;;;;;;6.90;100.00;101045.78;5114367;28;20059;-57
2023/11/21 04:24:58;;;;;;;35.03;18.33;;;;;;;6.91;100.00;101046.59;5115602;28;20147;-57
2023/11/21 04:27:26;;;;;;;32.83;18.23;;;;;;;6.90;100.00;101056.22;5115500;28;20039;-56
2023/11/21 04:29:54;;;;;;;34.45;19.05;;;;;;;6.91;100.00;101052.69;5115214;28;20042;-57
2023/11/21 04:32:22;;;;;;;33.90;19.17;;;;;;;6.91;100.00;101057.94;5114218;28;20147;-57
2023/11/21 04:34:50;;;;;;;31.30;18.35;;;;;;;6.94;100.00;101064.78;5114064;28;20050;-58
2023/11/21 04:37:18;;;;;;;30.30;16.65;;;;;;;6.97;100.00;101061.16;5115447;28;20047;-57
2023/11/21 04:39:48;;;;;;;29.30;16.75;;;;;;;6.97;100.00;101069.00;5115153;28;20035;-57
2023/11/21 04:42:16;;;;;;;27.50;16.10;;;;;;;6.98;100.00;101063.72;5115114;28;20055;-56
2023/11/21 04:44:44;;;;;;;28.08;16.80;;;;;;;7.00;100.00;101068.88;5114387;28;20046;-57
2023/11/21 04:47:13;;;;;;;29.00;16.23;;;;;;;6.98;100.00;101070.69;5114205;27;20089;-57
2023/11/21 04:49:44;;;;;;;29.90;16.30;;;;;;;6.98;100.00;101078.53;5114607;28;20554;-58
2023/11/21 04:52:12;;;;;;;30.55;17.02;;;;;;;6.98;100.00;101074.19;5113731;28;20058;-57
2023/11/21 04:54:40;;;;;;;27.85;16.08;;;;;;;6.99;100.00;101080.25;5113655;28;20502;-57
2023/11/21 04:57:10;;;;;;;25.80;16.13;;;;;;;6.98;100.00;101089.00;5114665;28;20067;-57
2023/11/21 04:59:38;;;;;;;29.83;15.93;;;;;;;7.00;100.00;101093.25;5113849;27;20040;-58
2023/11/21 05:02:06;;;;;;;28.02;15.65;;;;;;;7.02;100.00;101098.41;5113727;28;20055;-58
2023/11/21 05:04:34;;;;;;;27.92;16.50;;;;;;;7.01;100.00;101096.72;5112466;28;20082;-57
2023/11/21 05:07:05;;;;;;;26.27;16.17;;;;;;;6.99;100.00;101102.00;5114618;28;20119;-57
2023/11/21 05:09:34;;;;;;;26.20;15.05;;;;;;;7.00;100.00;101100.25;5113095;28;20135;-58
2023/11/21 05:12:03;;;;;;;23.10;14.13;;;;;;;7.01;100.00;101101.94;5114374;28;20093;-58
2023/11/21 05:14:33;;;;;;;26.42;14.82;;;;;;;7.01;100.00;101101.94;5114697;27;20130;-57
2023/11/21 05:17:01;;;;;;;26.00;15.10;;;;;;;7.02;100.00;101111.47;5113334;28;20051;-58
2023/11/21 05:19:29;;;;;;;26.00;14.45;;;;;;;7.01;100.00;101102.81;5112958;28;20494;-57
2023/11/21 05:22:01;;;;;;;24.65;13.98;;;;;;;7.01;100.00;101107.16;5112990;28;20039;-58
2023/11/21 05:24:32;;;;;;;25.50;14.77;;;;;;;7.02;100.00;101112.34;5114121;28;20048;-58
2023/11/21 05:27:00;;;;;;;25.42;14.90;;;;;;;7.03;100.00;101116.63;5112397;28;20101;-58
2023/11/21 05:29:28;;;;;;;23.60;14.10;;;;;;;7.03;100.00;101113.19;5110855;28;20051;-55
2023/11/21 05:32:00;;;;;;;25.20;14.73;;;;;;;7.03;100.00;101118.41;5111863;28;20048;-57
2023/11/21 05:34:28;;;;;;;24.35;14.23;;;;;;;7.06;100.00;101123.50;5113184;28;20054;-57
2023/11/21 05:36:58;;;;;;;25.20;14.80;;;;;;;7.06;100.00;101126.13;5112370;28;20093;-58
2023/11/21 05:39:27;;;;;;;23.90;13.90;;;;;;;7.07;100.00;101127.81;5110594;28;20112;-58
2023/11/21 05:41:57;;;;;;;21.88;14.05;;;;;;;7.06;100.00;101133.97;5111093;28;20046;-58
2023/11/21 05:44:25;;;;;;;21.42;13.80;;;;;;;7.06;100.00;101136.56;5113557;28;20043;-58
2023/11/21 05:46:54;;;;;;;24.45;13.60;;;;;;;7.06;100.00;101147.03;5112823;28;20410;-57
2023/11/21 05:49:26;;;;;;;25.17;13.90;;;;;;;7.05;100.00;101140.13;5113375;28;20050;-57
2023/11/21 05:51:54;;;;;;;22.92;14.10;;;;;;;7.02;100.00;101148.97;5113277;28;21147;-58
2023/11/21 05:54:23;;;;;;;24.33;14.40;;;;;;;7.03;100.00;101157.66;5113565;28;20498;-58
2023/11/21 05:56:51;;;;;;;23.20;14.07;;;;;;;7.02;100.00;101156.81;5113076;28;20035;-58
2023/11/21 05:59:20;;;;;;;27.90;15.07;;;;;;;7.04;100.00;101167.19;5110208;28;20047;-57
2023/11/21 06:01:50;;;;;;;23.13;14.63;;;;;;;7.06;100.00;101163.59;5111533;28;20052;-58
2023/11/21 06:04:22;;;;;;;23.17;14.13;;;;;;;7.07;100.00;101165.28;5112047;28;20104;-58
2023/11/21 06:06:52;;;;;;;24.25;14.90;;;;;;;7.06;100.00;101170.56;5113242;28;20052;-58
2023/11/21 06:09:21;;;;;;;23.35;14.27;;;;;;;7.08;100.00;101171.38;5113066;28;20044;-58
2023/11/21 06:11:49;;;;;;;24.65;15.15;;;;;;;7.10;100.00;101174.75;5111113;28;20052;-58
2023/11/21 06:14:18;;;;;;;22.90;14.18;;;;;;;7.11;100.00;101173.84;5110803;28;20044;-58
2023/11/21 06:16:46;;;;;;;25.45;15.35;;;;;;;7.13;100.00;101174.63;5111451;28;20048;-59
2023/11/21 06:19:14;;;;;;;25.15;15.38;;;;;;;7.13;100.00;101179.00;5112486;28;20050;-58
2023/11/21 06:21:46;;;;;;;25.92;16.23;;;;;;;7.13;100.00;101173.78;5113079;28;20047;-57
2023/11/21 06:24:16;;;;;;;25.00;15.70;;;;;;;7.15;100.00;101177.19;5113114;28;20057;-58
2023/11/21 06:26:45;;;;;;;26.25;15.45;;;;;;;7.16;100.00;101184.94;5112628;28;20086;-57
2023/11/21 06:29:13;;;;;;;25.60;15.05;;;;;;;7.18;100.00;101185.72;5112830;28;20044;-58
2023/11/21 06:31:41;;;;;;;26.58;14.80;;;;;;;7.18;100.00;101187.50;5112973;27;20505;-57
2023/11/21 06:34:09;;;;;;;26.05;16.10;;;;;;;7.18;100.00;101193.56;5111386;28;20467;-57
2023/11/21 06:36:37;;;;;;;28.80;15.77;;;;;;;7.20;100.00;101199.59;5110122;28;20050;-57
2023/11/21 06:39:08;;;;;;;26.08;15.90;;;;;;;7.20;100.00;101196.97;5112821;28;20047;-57
2023/11/21 06:41:41;;;;;;;27.83;17.35;;;;;;;7.19;100.00;101197.03;5112727;28;20050;-58
2023/11/21 06:44:09;;;;;;;27.40;17.02;;;;;;;7.20;100.00;101202.22;5112699;28;20048;-58
2023/11/21 06:46:38;;;;;;;29.77;16.75;;;;;;;7.22;100.00;101205.59;5112509;28;20051;-57
2023/11/21 06:49:06;;;;;;;27.15;16.70;;;;;;;7.24;100.00;101211.63;5112456;28;20503;-57
2023/11/21 06:51:35;;;;;;;31.40;17.35;;;;;;;7.19;100.00;101208.34;5111151;28;20513;-57
2023/11/21 06:54:03;;;;;;;28.65;18.02;;;;;;;7.20;100.00;101214.41;5112611;28;20075;-58
2023/11/21 06:56:31;;;;;;;25.90;16.73;;;;;;;7.24;100.00;101223.81;5112413;28;20048;-57
2023/11/21 06:59:00;;;;;;;27.85;17.05;;;;;;;7.24;100.00;101218.59;5115876;28;20040;-58
2023/11/21 07:01:28;;;;;;;28.38;17.92;;;;;;;7.21;100.00;101217.00;5113243;28;20135;-57
2023/11/21 07:03:58;;;;;;;28.10;17.15;;;;;;;7.25;100.00;101223.78;5114817;28;20046;-47
2023/11/21 07:06:27;;;;;;;25.20;16.50;;;;;;;7.24;100.00;101219.47;5111875;28;20456;-51
2023/11/21 07:08:55;;;;;;;29.67;16.63;;;;;;;7.26;100.00;101222.84;5114480;28;20498;-58
2023/11/21 07:11:23;;;;;;;27.20;16.05;;;;;;;7.28;100.00;101222.81;5116385;28;20044;-58
2023/11/21 07:13:51;;;;;;;27.85;16.63;;;;;;;7.31;100.00;101234.88;5115619;28;20055;-48
2023/11/21 07:16:22;;;;;;;25.42;15.45;;;;;;;7.33;100.00;101246.97;5115745;28;20051;-47
2023/11/21 07:18:50;;;;;;;24.25;14.70;;;;;;;7.34;100.00;101248.66;5115964;28;20047;-46
2023/11/21 07:21:19;;;;;;;23.45;14.95;;;;;;;7.35;100.00;101257.34;5115815;28;20415;-48
2023/11/21 07:23:47;;;;;;;26.95;16.80;;;;;;;7.36;100.00;101259.94;5115701;28;20051;-47
2023/11/21 07:26:15;;;;;;;26.33;16.10;;;;;;;7.37;100.00;101263.38;5114383;28;20383;-58
2023/11/21 07:28:43;;;;;;;25.30;15.95;;;;;;;7.39;100.00;101269.38;5115266;28;20055;-58
2023/11/21 07:31:12;;;;;;;24.77;16.15;;;;;;;7.41;100.00;101271.00;5113957;28;20043;-58
2023/11/21 07:33:41;;;;;;;25.35;15.68;;;;;;;7.44;100.00;101286.59;5115491;28;20047;-58
2023/11/21 07:36:10;;;;;;;26.33;16.65;;;;;;;7.42;100.00;101277.97;5115226;28;20051;-58
2023/11/21 07:38:38;;;;;;;26.83;17.83;;;;;;;7.45;100.00;101280.44;5115326;28;20043;-58
2023/11/21 07:41:07;;;;;;;27.55;17.90;;;;;;;7.47;100.00;101277.75;5114831;28;20571;-58
2023/11/21 07:43:49;;;;;;;31.38;17.48;;;;;;;7.49;100.00;101290.78;5115042;28;20051;-59
2023/11/21 07:46:17;;;;;;;29.00;17.17;;;;;;;7.49;100.00;101296.00;5115195;28;20079;-57
2023/11/21 07:48:47;;;;;;;29.38;17.38;;;;;;;7.51;100.00;101286.31;5115582;27;20587;-58
2023/11/21 07:51:15;;;;;;;27.88;17.10;;;;;;;7.51;100.00;101291.53;5115941;28;20044;-58
2023/11/21 07:53:46;;;;;;;26.95;17.58;;;;;;;7.50;100.00;101288.09;5115981;28;20042;-58
2023/11/21 07:56:14;;;;;;;30.42;18.17;;;;;;;7.54;100.00;101296.63;5116002;28;20139;-57
2023/11/21 07:58:47;;;;;;;33.63;19.05;;;;;;;7.55;100.00;101307.06;5115702;28;20050;-58
2023/11/21 08:01:18;;;;;;;30.17;18.42;;;;;;;7.58;100.00;101306.03;5113902;28;20525;-57
2023/11/21 08:03:51;;;;;;;30.25;19.00;;;;;;;7.62;100.00;101315.47;5116074;28;20048;-58
2023/11/21 08:06:20;;;;;;;33.35;19.70;;;;;;;7.65;100.00;101317.09;5114724;28;20048;-58
2023/11/21 08:08:47;;;;;;;34.15;19.60;;;;;;;7.67;100.00;101318.72;5114064;28;20043;-58
2023/11/21 08:11:16;;;;;;;31.83;19.77;;;;;;;7.70;100.00;101325.59;5114773;28;20869;-57
2023/11/21 08:13:45;;;;;;;33.20;19.10;;;;;;;7.74;100.00;101327.16;5113617;28;20047;-58
2023/11/21 08:16:14;;;;;;;33.95;19.58;;;;;;;7.75;100.00;101339.34;5113555;28;20096;-57
2023/11/21 08:18:42;;;;;;;37.70;20.35;;;;;;;7.78;100.00;101341.81;5115189;28;20127;-58
2023/11/21 08:21:13;;;;;;;34.80;20.42;;;;;;;7.80;100.00;101345.22;5113966;28;20486;-57
2023/11/21 08:23:41;;;;;;;32.17;18.48;;;;;;;7.82;100.00;101351.22;5114008;28;20502;-58
2023/11/21 08:26:09;;;;;;;33.65;19.73;;;;;;;7.84;100.00;101353.75;5113925;28;20044;-57
2023/11/21 08:28:37;;;;;;;32.78;18.85;;;;;;;7.85;100.00;101356.31;5115236;28;20047;-58
2023/11/21 08:31:06;;;;;;;31.58;19.08;;;;;;;7.89;100.00;101365.72;5113937;28;20132;-58
2023/11/21 08:33:34;;;;;;;31.23;18.92;;;;;;;7.91;100.00;101366.53;5115093;28;20547;-57
2023/11/21 08:36:07;;;;;;;37.15;19.90;;;;;;;7.93;100.00;101369.94;5114639;28;20067;-58
2023/11/21 08:38:37;;;;;;;33.72;18.90;;;;;;;7.93;100.00;101380.41;5114331;28;20122;-57
2023/11/21 08:41:08;;;;;;;31.13;17.80;;;;;;;7.95;100.00;101382.97;5113895;28;20047;-58
2023/11/21 08:43:39;;;;;;;35.40;18.98;;;;;;;7.99;100.00;101381.03;5113197;28;20043;-57
2023/11/21 08:46:09;;;;;;;35.00;19.70;;;;;;;8.00;100.00;101385.34;5115126;27;20598;-58
2023/11/21 08:48:37;;;;;;;31.95;18.65;;;;;;;7.99;100.00;101375.78;5114178;28;20494;-58
2023/11/21 08:51:06;;;;;;;33.60;20.50;;;;;;;8.02;100.00;101378.28;5114427;28;20040;-59
2023/11/21 08:53:34;;;;;;;36.67;20.17;;;;;;;8.03;100.00;101383.47;5114838;28;20501;-48
2023/11/21 08:56:04;;;;;;;35.95;18.75;;;;;;;8.06;100.00;101382.47;5115228;28;20039;-57
2023/11/21 08:58:33;;;;;;;32.35;17.75;;;;;;;8.08;100.00;101385.84;5115276;28;20104;-58
2023/11/21 09:01:01;;;;;;;33.95;21.10;;;;;;;8.10;100.00;101386.66;5112708;28;20064;-50
2023/11/21 09:03:29;;;;;;;38.10;19.92;;;;;;;8.14;100.00;101385.59;5111454;28;20062;-58
2023/11/21 09:05:56;;;;;;;36.10;19.55;;;;;;;8.16;100.00;101390.75;5114907;28;20050;-58
2023/11/21 09:08:24;;;;;;;34.72;18.33;;;;;;;8.18;100.00;101395.00;5113961;28;20073;-50
2023/11/21 09:10:53;;;;;;;33.75;19.13;;;;;;;8.22;100.00;101400.94;5109030;28;20384;-49
2023/11/21 09:13:25;;;;;;;33.65;19.20;;;;;;;8.23;100.00;101406.09;5111358;28;20079;-52
2023/11/21 09:15:53;;;;;;;32.75;20.23;;;;;;;8.27;100.00;101407.66;5113579;28;20059;-50
2023/11/21 09:18:21;;;;;;;33.05;19.88;;;;;;;8.29;100.00;101411.06;5113520;28;20062;-49
2023/11/21 09:20:49;;;;;;;35.65;20.60;;;;;;;8.30;100.00;101409.28;5111305;28;20105;-49
2023/11/21 09:23:18;;;;;;;31.98;18.67;;;;;;;8.34;100.00;101420.47;5113267;28;20043;-50
2023/11/21 09:25:46;;;;;;;30.67;18.95;;;;;;;8.35;100.00;101425.66;5109381;28;20387;-47
2023/11/21 09:28:14;;;;;;;33.92;20.50;;;;;;;8.37;100.00;101431.69;5110073;28;20056;-49
2023/11/21 09:30:44;;;;;;;33.53;19.15;;;;;;;8.37;100.00;101430.81;5113250;28;20379;-50
2023/11/21 09:33:12;;;;;;;34.47;19.80;;;;;;;8.38;100.00;101437.75;5113358;28;20043;-48
2023/11/21 09:35:40;;;;;;;32.00;18.50;;;;;;;8.38;100.00;101443.00;5113141;28;20044;-50
2023/11/21 09:38:10;;;;;;;34.22;19.60;;;;;;;8.39;100.00;101447.34;5113304;28;20040;-57
2023/11/21 09:40:39;;;;;;;37.65;20.23;;;;;;;8.40;100.00;101446.41;5113685;28;20047;-59
2023/11/21 09:43:17;;;;;;;38.33;20.60;;;;;;;8.43;100.00;101454.13;5114030;28;20054;-57
2023/11/21 09:45:50;;;;;;;34.25;20.25;;;;;;;8.43;100.00;101459.38;5113979;28;20064;-58
2023/11/21 09:48:20;;;;;;;37.38;21.13;;;;;;;8.45;100.00;101468.03;5114295;28;20054;-58
2023/11/21 09:50:49;;;;;;;35.38;20.48;;;;;;;8.48;100.00;101460.06;5113731;28;20059;-46
2023/11/21 09:53:23;;;;;;;36.35;21.10;;;;;;;8.52;100.00;101460.75;5113018;28;20148;-50
2023/11/21 09:55:53;;;;;;;36.13;20.38;;;;;;;8.55;100.00;101469.31;5112850;28;20039;-50
2023/11/21 09:58:23;;;;;;;34.47;20.33;;;;;;;8.57;100.00;101475.31;5112774;28;20059;-48
2023/11/21 10:00:55;;;;;;;33.15;18.58;;;;;;;8.57;100.00;101480.56;5111545;28;20091;-49
2023/11/21 10:03:24;;;;;;;35.17;20.52;;;;;;;8.65;100.00;101487.25;5112643;28;20130;-51
2023/11/21 10:05:59;;;;;;;39.88;21.90;;;;;;;8.70;100.00;101493.97;5112050;28;20100;-59
2023/11/21 10:08:29;;;;;;;39.72;22.58;;;;;;;8.74;100.00;101492.03;5111571;28;20058;-51
2023/11/21 10:11:16;;;;;;;36.92;21.92;;;;;;;8.77;100.00;101502.41;5112577;28;20058;-51
2023/11/21 10:13:46;;;;;;;39.25;22.77;;;;;;;8.81;100.00;101493.47;5112555;28;20039;-53
2023/11/21 10:16:21;;;;;;;38.20;21.73;;;;;;;8.85;100.00;101494.16;5111220;28;20071;-46
2023/11/21 10:18:54;;;;;;;39.05;22.73;;;;;;;8.82;100.00;101497.81;5108805;28;20108;-50
2023/11/21 10:21:31;;;;;;;41.10;22.17;;;;;;;8.90;100.00;101505.28;5111480;28;20529;-50
2023/11/21 10:23:59;;;;;;;38.58;22.02;;;;;;;8.95;100.00;101493.66;5112540;28;20043;-46
2023/11/21 10:26:28;;;;;;;36.85;21.13;;;;;;;9.01;100.00;101503.00;5112435;28;20055;-47
2023/11/21 10:29:08;;;;;;;35.38;20.40;;;;;;;9.08;100.00;101508.81;5112509;28;20072;-48
2023/11/21 10:31:37;;;;;;;34.35;19.17;;;;;;;9.11;100.00;101509.50;5112288;28;20071;-50
2023/11/21 10:34:16;;;;;;;33.03;20.45;;;;;;;9.13;100.00;101519.94;5112287;28;20047;-47
2023/11/21 10:36:44;;;;;;;28.77;17.23;;;;;;;9.16;100.00;101518.94;5112144;28;20051;-51
2023/11/21 10:39:18;;;;;;;30.95;18.55;;;;;;;9.17;100.00;101521.47;5110920;28;20522;-46
2023/11/21 10:41:46;;;;;;;31.45;18.40;;;;;;;9.21;100.00;101520.41;5107888;28;20064;-47
2023/11/21 10:44:20;;;;;;;34.50;18.45;;;;;;;9.26;100.00;101517.56;5110995;28;20048;-48
2023/11/21 10:46:50;;;;;;;31.63;19.40;;;;;;;9.31;100.00;101515.56;5112212;28;20126;-52
2023/11/21 10:49:19;;;;;;;31.25;17.08;;;;;;;9.33;100.00;101513.72;5112296;28;20054;-48
2023/11/21 10:51:50;;;;;;;33.00;17.35;;;;;;;9.38;100.00;101516.09;5110602;28;20038;-50
2023/11/21 10:54:20;;;;;;;26.80;17.38;;;;;;;9.43;100.00;101516.72;5108443;28;20040;-49
2023/11/21 10:56:51;;;;;;;29.10;17.40;;;;;;;9.46;100.00;101537.56;5109470;28;20047;-48
2023/11/21 10:59:21;;;;;;;28.80;16.63;;;;;;;9.44;100.00;101539.44;5112020;28;20558;-46
2023/11/21 11:01:52;;;;;;;28.70;15.52;;;;;;;9.46;100.00;101537.56;5111860;28;20429;-47
2023/11/21 11:04:22;;;;;;;23.60;14.07;;;;;;;9.49;100.00;101540.06;5112277;28;20056;-46
2023/11/21 11:06:56;;;;;;;24.20;14.95;;;;;;;9.48;100.00;101541.00;5110210;28;20575;-45
2023/11/21 11:09:24;;;;;;;27.77;16.08;;;;;;;9.46;100.00;101545.44;5108561;28;20093;-49
2023/11/21 11:11:54;;;;;;;29.98;16.88;;;;;;;9.41;100.00;101555.34;5111559;28;20481;-50
2023/11/21 11:14:25;;;;;;;25.08;15.48;;;;;;;9.41;100.00;101564.06;5111730;28;20073;-46
2023/11/21 11:16:56;;;;;;;28.00;16.55;;;;;;;9.42;100.00;101554.41;5111806;28;20542;-49
2023/11/21 11:19:24;;;;;;;26.25;16.10;;;;;;;9.43;100.00;101561.38;5112026;28;20478;-47